Charlottesville Albemarle Airport
KCHO : now visible

Aeroporto :











RITROVATECI SU...

 
LOGIN :

Iscrizione | Disclaimer

   EN    FR    IT 

 









Sommario :    VFR   VFR Marginale   IFR   IFR Intensivo   IFR Molto Intensivo
Visibilità : 
Base nubi : 
>= 8 km
>= 3000ft
5 / 8 km
1000 / 3000 ft
1500m / 5 km
500 / 1000 ft
800 / 1500m
200 / 500 ft
< 800m
< 200 ft
Simboli :   Temporali  Nebbia  Neve Forte  Precipitazioni Forti  Vento > 20 kt






- Altitudine del aeroporto : 639 ft
- Codice IATA : CHO


KCHO - Charlottesville Albemarle

ULTIMO METAR :
  • 261253Z 19008KT 7SM CLR 13/12 A3002 RMK AO2 SLP163 T01280117

METARs OBSOLETI :
  • 261213Z 22005KT 7SM FEW005 13/11 A3001 RMK AO2 T01330111
  • 261153Z 20009KT 7SM CLR 13/11 A3001 RMK AO2 SLP159 60003 70003 T01280111 10133 20111 56003
  • 261053Z 19008KT 8SM CLR 13/11 A3001 RMK AO2 SLP158 T01280111

TAF KCHO
Valido dal 26 a 12 ore il 27 a 12 ore UTC


261122Z 2612/2712 19005KT P6SM SCT001 BKN030
FM261300 21005KT P6SM SCT008 BKN020
FM261500 22007KT P6SM FEW015 SCT050
FM261800 24008KT P6SM FEW140 SCT250
FM262000 25006KT P6SM FEW045 SCT250
FM262300 VRB03KT P6SM FEW250
FIR KZDC / America del Nord



MetMap, La meteo Aeronautica in un colpo d'occhio ! - Copyright ORBIFLY Dicembre 2007 - Disclaimer

ORBIFLY MET'MAP TEAM :

Programmazione e sviluppo : Alexandra Zaïnal
Concezione : Baudouin d'Aumeries
Aiuto per la programmazione : Marc-Olivier Méhu
Supporto tecnico e logistico : Manuel Goepfert
Aiuto per la traduzione : Arnaldo La Scala

Contatto : metmap@orbifly.com




FONTI E CREDITI :

   NOAA       Earth
Advisory